createdAt,value
2018-07-31T00:01:11.674Z,101095.44
2018-07-31T00:03:40.672Z,101092.16
2018-07-31T00:06:30.394Z,101093.69
2018-07-31T00:08:59.275Z,101097.30
2018-07-31T00:11:28.130Z,101095.81
2018-07-31T00:13:57.018Z,101095.12
2018-07-31T00:16:31.883Z,101093.91
2018-07-31T00:19:01.847Z,101096.72
2018-07-31T00:21:30.724Z,101092.42
2018-07-31T00:24:00.651Z,101091.44
2018-07-31T00:26:29.505Z,101094.91
2018-07-31T00:28:58.402Z,101089.06
2018-07-31T00:31:29.383Z,101091.20
2018-07-31T00:33:58.251Z,101090.19
2018-07-31T00:36:27.097Z,101088.30
2018-07-31T00:38:55.965Z,101088.55
2018-07-31T00:41:29.529Z,101093.31
2018-07-31T00:43:58.404Z,101090.00
2018-07-31T00:46:27.267Z,101089.80
2018-07-31T00:49:04.246Z,101089.91
2018-07-31T00:51:41.114Z,101086.52
2018-07-31T00:54:10.012Z,101082.50
2018-07-31T00:56:50.017Z,101082.97
2018-07-31T00:59:18.893Z,101087.20
2018-07-31T01:01:47.778Z,101085.93
2018-07-31T01:04:30.334Z,101087.05
2018-07-31T01:06:59.219Z,101093.61
2018-07-31T01:09:45.033Z,101089.48
2018-07-31T01:12:27.088Z,101085.98
2018-07-31T01:14:55.987Z,101084.89
2018-07-31T01:17:24.867Z,101087.52
2018-07-31T01:22:59.232Z,101083.83
2018-07-31T01:25:28.119Z,101083.59
2018-07-31T01:27:57.199Z,101078.89
2018-07-31T01:30:26.064Z,101080.57
2018-07-31T01:32:54.922Z,101081.16
2018-07-31T01:35:23.773Z,101081.33
2018-07-31T01:40:55.772Z,101083.23
2018-07-31T01:43:28.244Z,101079.56
2018-07-31T01:45:57.216Z,101083.22
2018-07-31T01:48:26.086Z,101082.90
2018-07-31T01:50:54.943Z,101083.06
2018-07-31T01:53:23.833Z,101079.79
2018-07-31T01:55:52.716Z,101081.11
2018-07-31T01:58:21.562Z,101081.69
2018-07-31T02:00:50.430Z,101077.56
2018-07-31T02:03:19.326Z,101082.23
2018-07-31T02:05:48.212Z,101080.59
2018-07-31T02:08:21.502Z,101084.45
2018-07-31T02:10:50.476Z,101081.53
2018-07-31T02:13:19.473Z,101085.78
2018-07-31T02:15:48.345Z,101086.32
2018-07-31T02:18:39.335Z,101085.08
2018-07-31T02:21:08.206Z,101090.58
2018-07-31T02:23:37.428Z,101089.20
2018-07-31T02:26:10.412Z,101082.46
2018-07-31T02:28:39.312Z,101075.28
2018-07-31T02:31:20.360Z,101078.60
2018-07-31T02:33:49.244Z,101076.44
2018-07-31T02:36:23.819Z,101076.12
2018-07-31T02:38:52.693Z,101074.79
2018-07-31T02:41:21.598Z,101068.33
2018-07-31T02:43:50.441Z,101073.06
2018-07-31T02:46:19.314Z,101072.31
2018-07-31T02:48:48.286Z,101075.71
2018-07-31T02:51:21.064Z,101076.73
2018-07-31T02:53:49.914Z,101073.95
2018-07-31T02:56:22.838Z,101082.27
2018-07-31T02:58:51.682Z,101086.35
2018-07-31T03:01:20.577Z,101078.91
2018-07-31T03:03:49.446Z,101074.91
2018-07-31T03:06:18.347Z,101077.56
2018-07-31T03:08:47.244Z,101070.61
2018-07-31T03:11:16.097Z,101067.74
2018-07-31T03:13:44.950Z,101070.08
2018-07-31T03:16:14.082Z,101067.42
2018-07-31T03:18:43.008Z,101075.27
2018-07-31T03:21:11.888Z,101070.05
2018-07-31T03:23:40.737Z,101077.64
2018-07-31T03:26:09.634Z,101076.99
2018-07-31T03:28:38.478Z,101084.16
2018-07-31T03:31:07.390Z,101089.92
2018-07-31T03:33:37.310Z,101085.19
2018-07-31T03:36:06.189Z,101091.40
2018-07-31T03:38:36.061Z,101097.90
2018-07-31T03:41:04.932Z,101096.48
2018-07-31T03:43:42.004Z,101095.91
2018-07-31T03:46:21.696Z,101095.91
2018-07-31T03:49:00.681Z,101086.48
2018-07-31T03:51:33.416Z,101090.34
2018-07-31T03:54:02.331Z,101096.52
2018-07-31T03:56:36.756Z,101095.34
2018-07-31T03:59:23.150Z,101095.38
2018-07-31T04:02:01.683Z,101093.23
2018-07-31T04:04:31.630Z,101096.52
2018-07-31T04:07:01.474Z,101100.34
2018-07-31T04:09:33.500Z,101093.85
2018-07-31T04:12:09.202Z,101090.11
2018-07-31T04:14:42.624Z,101092.78
2018-07-31T04:17:13.645Z,101089.05
2018-07-31T04:19:42.532Z,101081.73
2018-07-31T04:22:21.186Z,101086.64
2018-07-31T04:25:08.248Z,101089.39
2018-07-31T04:27:40.348Z,101091.94
2018-07-31T04:30:12.417Z,101091.64
2018-07-31T04:32:43.245Z,101092.30
2018-07-31T04:35:12.135Z,101080.84
2018-07-31T04:37:43.026Z,101089.84
2018-07-31T04:40:23.676Z,101092.62
2018-07-31T04:42:58.364Z,101088.88
2018-07-31T04:45:27.864Z,101093.58
2018-07-31T04:48:20.302Z,101100.56
2018-07-31T04:50:49.194Z,101105.33
2018-07-31T04:53:21.357Z,101109.45
2018-07-31T04:55:50.223Z,101110.07
2018-07-31T04:58:19.354Z,101114.64
2018-07-31T05:00:48.279Z,101112.04
2018-07-31T05:03:17.170Z,101108.31
2018-07-31T05:05:49.710Z,101110.22
2018-07-31T05:08:22.926Z,101115.91
2018-07-31T05:11:01.828Z,101116.13
2018-07-31T05:13:41.996Z,101106.67
2018-07-31T05:16:16.546Z,101108.23
2018-07-31T05:18:47.445Z,101099.98
2018-07-31T05:21:17.392Z,101103.47
2018-07-31T05:23:46.383Z,101104.11
2018-07-31T05:26:15.264Z,101104.56
2018-07-31T05:28:44.170Z,101106.81
2018-07-31T05:31:14.182Z,101106.42
2018-07-31T05:33:43.028Z,101110.47
2018-07-31T05:36:11.943Z,101109.40
2018-07-31T05:38:40.778Z,101113.59
2018-07-31T05:41:09.662Z,101111.80
2018-07-31T05:43:38.548Z,101108.05
2018-07-31T05:46:07.459Z,101118.41
2018-07-31T05:48:36.299Z,101132.37
2018-07-31T05:51:05.207Z,101131.98
2018-07-31T05:53:34.062Z,101134.34
2018-07-31T05:56:03.082Z,101137.88
2018-07-31T05:58:32.060Z,101142.81
2018-07-31T06:01:01.208Z,101147.92
2018-07-31T06:03:30.135Z,101145.83
2018-07-31T06:06:03.045Z,101145.48
2018-07-31T06:08:31.870Z,101139.98
2018-07-31T06:11:04.110Z,101138.95
2018-07-31T06:13:33.053Z,101137.14
2018-07-31T06:16:01.927Z,101136.12
2018-07-31T06:18:30.798Z,101128.13
2018-07-31T06:21:03.043Z,101132.93
2018-07-31T06:23:31.923Z,101135.23
2018-07-31T06:26:04.720Z,101134.79
2018-07-31T06:28:33.622Z,101138.20
2018-07-31T06:31:03.710Z,101147.70
2018-07-31T06:33:36.462Z,101150.45
2018-07-31T06:36:17.838Z,101154.25
2018-07-31T06:38:46.724Z,101156.06
2018-07-31T06:41:15.592Z,101164.07
2018-07-31T06:43:44.577Z,101156.42
2018-07-31T06:46:30.634Z,101168.02
2018-07-31T06:48:59.494Z,101165.12
2018-07-31T06:51:28.406Z,101159.22
2018-07-31T06:53:57.280Z,101161.03
2018-07-31T06:56:26.159Z,101161.47
2018-07-31T06:58:55.383Z,101165.27
2018-07-31T07:01:27.511Z,101160.44
2018-07-31T07:03:59.831Z,101170.06
2018-07-31T07:06:32.948Z,101166.38
2018-07-31T07:09:01.813Z,101166.23
2018-07-31T07:11:30.838Z,101171.25
2018-07-31T07:13:59.860Z,101166.66
2018-07-31T07:16:28.919Z,101168.20
2018-07-31T07:18:57.850Z,101176.85
2018-07-31T07:21:26.720Z,101178.23
2018-07-31T07:23:55.596Z,101172.23
2018-07-31T07:26:24.465Z,101174.09
2018-07-31T07:28:54.366Z,101165.66
2018-07-31T07:31:23.478Z,101157.97
2018-07-31T07:33:57.519Z,101146.11
2018-07-31T07:36:26.311Z,101151.83
2018-07-31T07:38:55.183Z,101151.02
2018-07-31T07:41:28.700Z,101153.00
2018-07-31T07:43:57.560Z,101146.66
2018-07-31T07:46:31.411Z,101132.25
2018-07-31T07:49:12.289Z,101129.41
2018-07-31T07:51:52.645Z,101134.59
2018-07-31T07:54:27.564Z,101135.53
2018-07-31T07:57:12.998Z,101136.83
2018-07-31T07:59:42.882Z,101138.47
2018-07-31T08:02:12.867Z,101138.73
2018-07-31T08:04:42.774Z,101151.02
2018-07-31T08:07:21.115Z,101161.98
2018-07-31T08:09:52.066Z,101168.81
2018-07-31T08:12:21.235Z,101167.50
2018-07-31T08:15:02.398Z,101166.86
2018-07-31T08:17:36.457Z,101168.83
2018-07-31T08:20:11.193Z,101162.29
2018-07-31T08:22:44.319Z,101161.17
2018-07-31T08:25:18.333Z,101150.88
2018-07-31T08:27:50.435Z,101157.38
2018-07-31T08:30:19.293Z,101149.52
2018-07-31T08:32:49.178Z,101157.11
2018-07-31T08:35:19.058Z,101164.16
2018-07-31T08:37:48.072Z,101165.77
2018-07-31T08:40:17.184Z,101165.55
2018-07-31T08:42:46.225Z,101167.12
2018-07-31T08:45:18.256Z,101177.52
2018-07-31T08:47:48.205Z,101177.38
2018-07-31T08:50:17.183Z,101179.88
2018-07-31T08:52:46.042Z,101174.97
2018-07-31T08:55:20.705Z,101171.48
2018-07-31T08:58:00.436Z,101178.97
2018-07-31T09:00:31.402Z,101181.59
2018-07-31T09:03:01.591Z,101179.98
2018-07-31T09:05:34.194Z,101179.00
2018-07-31T09:08:03.255Z,101179.10
2018-07-31T09:10:33.134Z,101176.20
2018-07-31T09:13:05.276Z,101172.05
2018-07-31T09:15:37.654Z,101179.28
2018-07-31T09:18:06.717Z,101175.63
2018-07-31T09:20:35.604Z,101176.66
2018-07-31T09:23:04.620Z,101181.64
2018-07-31T09:25:38.869Z,101170.02
2018-07-31T09:28:09.088Z,101175.13
2018-07-31T09:30:47.409Z,101175.38
2018-07-31T09:33:17.653Z,101176.25
2018-07-31T09:35:53.183Z,101174.62
2018-07-31T09:38:24.108Z,101179.20
2018-07-31T09:40:53.150Z,101181.63
2018-07-31T09:43:22.117Z,101183.69
2018-07-31T09:45:54.950Z,101183.58
2018-07-31T09:48:23.916Z,101184.79
2018-07-31T09:50:53.868Z,101193.42
2018-07-31T09:53:27.562Z,101195.30
2018-07-31T09:55:56.438Z,101196.77
2018-07-31T09:58:25.412Z,101197.99
2018-07-31T10:01:04.648Z,101205.91
2018-07-31T10:03:39.034Z,101199.44
2018-07-31T10:06:09.274Z,101205.91
2018-07-31T10:08:38.274Z,101201.27
2018-07-31T10:11:07.126Z,101203.31
2018-07-31T10:13:54.362Z,101202.61
2018-07-31T10:16:23.306Z,101206.95
2018-07-31T10:18:58.751Z,101205.58
2018-07-31T10:21:33.514Z,101216.17
2018-07-31T10:24:03.458Z,101209.89
2018-07-31T10:26:35.838Z,101204.95
2018-07-31T10:29:04.733Z,101211.28
2018-07-31T10:31:34.025Z,101215.02
2018-07-31T10:34:06.365Z,101216.72
2018-07-31T10:36:35.263Z,101229.58
2018-07-31T10:39:07.947Z,101213.24
2018-07-31T10:41:47.955Z,101225.87
2018-07-31T10:44:22.793Z,101233.53
2018-07-31T10:46:51.763Z,101233.69
2018-07-31T10:49:27.293Z,101231.56
2018-07-31T10:52:02.045Z,101232.91
2018-07-31T10:54:31.439Z,101226.66
2018-07-31T10:57:00.329Z,101222.82
2018-07-31T10:59:34.569Z,101231.31
2018-07-31T11:02:03.379Z,101224.78
2018-07-31T11:04:35.737Z,101224.13
2018-07-31T11:07:04.770Z,101228.33
2018-07-31T11:09:33.643Z,101224.27
2018-07-31T11:12:02.542Z,101235.88
2018-07-31T11:14:41.322Z,101227.47
2018-07-31T11:17:10.507Z,101234.86
2018-07-31T11:19:39.525Z,101212.81
2018-07-31T11:22:14.784Z,101234.23
2018-07-31T11:24:43.660Z,101232.86
2018-07-31T11:27:12.546Z,101227.13
2018-07-31T11:29:41.442Z,101227.97
2018-07-31T11:32:18.173Z,101222.38
2018-07-31T11:34:47.041Z,101223.11
2018-07-31T11:37:15.909Z,101226.97
2018-07-31T11:39:50.064Z,101227.31
2018-07-31T11:42:18.928Z,101222.43
2018-07-31T11:44:48.049Z,101228.80
2018-07-31T11:47:17.287Z,101221.39
2018-07-31T11:49:46.238Z,101221.88
2018-07-31T11:52:15.116Z,101219.66
2018-07-31T11:54:44.981Z,101226.20
2018-07-31T11:57:17.665Z,101235.77
2018-07-31T11:59:46.571Z,101227.48
2018-07-31T12:02:15.647Z,101235.14
2018-07-31T12:04:44.638Z,101226.64
2018-07-31T12:07:18.435Z,101227.03
2018-07-31T12:09:47.333Z,101235.76
2018-07-31T12:12:16.282Z,101237.92
2018-07-31T12:14:45.157Z,101243.05
2018-07-31T12:17:14.014Z,101236.34
2018-07-31T12:19:42.914Z,101244.89
2018-07-31T12:22:11.782Z,101242.52
2018-07-31T12:24:45.152Z,101249.63
2018-07-31T12:27:14.037Z,101241.66
2018-07-31T12:29:43.060Z,101245.52
2018-07-31T12:32:12.243Z,101241.31
2018-07-31T12:34:41.092Z,101245.59
2018-07-31T12:37:13.905Z,101247.00
2018-07-31T12:39:46.141Z,101252.45
2018-07-31T12:42:14.997Z,101249.92
2018-07-31T12:44:50.257Z,101260.39
2018-07-31T12:47:19.165Z,101249.12
2018-07-31T12:49:48.049Z,101253.68
2018-07-31T12:52:17.028Z,101252.30
2018-07-31T12:54:45.999Z,101251.34
2018-07-31T12:57:14.898Z,101258.39
2018-07-31T12:59:43.772Z,101251.63
2018-07-31T13:02:12.621Z,101251.55
2018-07-31T13:04:46.166Z,101252.45
2018-07-31T13:07:15.046Z,101258.58
2018-07-31T13:09:43.954Z,101265.37
2018-07-31T13:12:12.848Z,101268.00
2018-07-31T13:14:43.735Z,101255.02
2018-07-31T13:17:12.729Z,101254.92
2018-07-31T13:20:02.220Z,101259.02
2018-07-31T13:22:31.118Z,101261.53
2018-07-31T13:24:59.958Z,101262.94
2018-07-31T13:27:31.996Z,101253.63
2018-07-31T13:30:00.887Z,101253.42
2018-07-31T13:32:30.775Z,101251.02
2018-07-31T13:34:59.630Z,101258.20
2018-07-31T13:37:28.518Z,101246.97
2018-07-31T13:39:57.365Z,101249.33
2018-07-31T13:42:26.268Z,101256.81
2018-07-31T13:44:55.513Z,101264.78
2018-07-31T13:47:24.395Z,101264.54
2018-07-31T13:49:53.256Z,101263.48
2018-07-31T13:52:22.373Z,101262.23
2018-07-31T13:54:51.224Z,101259.88
2018-07-31T13:57:20.123Z,101261.31
2018-07-31T13:59:49.011Z,101253.73
2018-07-31T14:02:17.872Z,101244.20
2018-07-31T14:04:46.769Z,101247.46
2018-07-31T14:07:15.933Z,101248.18
2018-07-31T14:09:44.824Z,101253.73
2018-07-31T14:12:13.724Z,101257.59
2018-07-31T14:14:54.641Z,101261.19
2018-07-31T14:17:27.225Z,101259.32
2018-07-31T14:19:56.074Z,101257.21
2018-07-31T14:22:37.182Z,101249.75
2018-07-31T14:25:18.789Z,101252.73
2018-07-31T14:27:47.789Z,101251.58
2018-07-31T14:30:16.755Z,101242.28
2018-07-31T14:32:45.794Z,101258.20
2018-07-31T14:35:14.680Z,101248.31
2018-07-31T14:37:49.808Z,101250.06
2018-07-31T14:40:18.829Z,101258.89
2018-07-31T14:43:04.424Z,101258.39
2018-07-31T14:45:44.085Z,101265.72
2018-07-31T14:48:16.095Z,101263.63
2018-07-31T14:50:45.022Z,101258.15
2018-07-31T14:53:15.004Z,101260.02
2018-07-31T14:55:48.512Z,101268.52
2018-07-31T14:58:17.412Z,101260.09
2018-07-31T15:00:46.306Z,101247.05
2018-07-31T15:03:15.320Z,101265.56
2018-07-31T15:05:44.251Z,101263.64
2018-07-31T15:08:15.134Z,101262.72
2018-07-31T15:10:45.168Z,101266.81
2018-07-31T15:13:15.034Z,101263.97
2018-07-31T15:15:45.954Z,101268.25
2018-07-31T15:18:15.631Z,101264.56
2018-07-31T15:20:47.927Z,101263.30
2018-07-31T15:23:18.372Z,101264.58
2018-07-31T15:25:52.624Z,101262.89
2018-07-31T15:28:26.298Z,101263.38
2018-07-31T15:31:04.981Z,101256.81
2018-07-31T15:33:34.602Z,101254.98
2018-07-31T15:36:05.588Z,101259.84
2018-07-31T15:38:42.179Z,101263.25
2018-07-31T15:41:11.270Z,101258.29
2018-07-31T15:43:42.512Z,101256.81
2018-07-31T15:46:13.848Z,101263.28
2018-07-31T15:48:43.248Z,101269.13
2018-07-31T15:51:13.757Z,101255.39
2018-07-31T15:53:42.720Z,101265.97
2018-07-31T15:56:12.751Z,101265.01
2018-07-31T15:58:42.666Z,101258.31
2018-07-31T16:01:11.684Z,101267.91
2018-07-31T16:03:40.577Z,101276.64
2018-07-31T16:06:09.506Z,101275.04
2018-07-31T16:08:39.710Z,101269.41
2018-07-31T16:11:08.634Z,101279.30
2018-07-31T16:13:37.563Z,101283.53
2018-07-31T16:16:06.610Z,101278.15
2018-07-31T16:18:35.528Z,101282.91
2018-07-31T16:21:05.044Z,101279.98
2018-07-31T16:23:35.258Z,101275.39
2018-07-31T16:26:04.288Z,101278.44
2018-07-31T16:28:36.293Z,101284.23
2018-07-31T16:31:06.124Z,101283.52
2018-07-31T16:33:35.892Z,101291.56
2018-07-31T16:36:04.850Z,101292.53
2018-07-31T16:38:40.439Z,101298.69
2018-07-31T16:41:11.469Z,101291.13
2018-07-31T16:43:40.716Z,101294.77
2018-07-31T16:46:10.826Z,101293.69
2018-07-31T16:48:41.214Z,101297.09
2018-07-31T16:51:17.735Z,101294.05
2018-07-31T16:53:48.016Z,101302.37
2018-07-31T16:56:18.973Z,101296.04
2018-07-31T16:58:52.607Z,101305.14
2018-07-31T17:01:22.539Z,101298.20
2018-07-31T17:03:51.558Z,101300.67
2018-07-31T17:06:24.088Z,101307.82
2018-07-31T17:08:52.949Z,101307.02
2018-07-31T17:11:34.879Z,101306.95
2018-07-31T17:14:17.906Z,101310.79
2018-07-31T17:16:47.340Z,101312.98
2018-07-31T17:19:20.669Z,101319.52
2018-07-31T17:21:53.077Z,101321.50
2018-07-31T17:24:25.368Z,101328.94
2018-07-31T17:26:54.825Z,101326.17
2018-07-31T17:29:23.720Z,101335.03
2018-07-31T17:31:58.510Z,101325.09
2018-07-31T17:34:27.417Z,101329.49
2018-07-31T17:36:58.463Z,101334.70
2018-07-31T17:39:28.458Z,101341.14
2018-07-31T17:41:59.456Z,101340.98
2018-07-31T17:44:28.475Z,101345.29
2018-07-31T17:47:02.763Z,101354.18
2018-07-31T17:49:35.765Z,101355.64
2018-07-31T17:52:04.970Z,101361.24
2018-07-31T17:54:33.936Z,101363.91
2018-07-31T17:57:04.842Z,101363.50
2018-07-31T17:59:33.775Z,101365.11
2018-07-31T18:02:04.968Z,101375.45
2018-07-31T18:04:34.858Z,101375.45
2018-07-31T18:07:03.773Z,101376.77
2018-07-31T18:09:36.827Z,101377.42
2018-07-31T18:12:06.131Z,101383.67
2018-07-31T18:14:42.445Z,101386.44
2018-07-31T18:17:13.760Z,101387.95
2018-07-31T18:19:45.057Z,101382.35
2018-07-31T18:22:14.371Z,101387.01
2018-07-31T18:24:44.292Z,101390.20
2018-07-31T18:27:14.326Z,101385.25
2018-07-31T18:29:46.613Z,101386.92
2018-07-31T18:32:16.646Z,101389.94
2018-07-31T18:34:46.613Z,101391.80
2018-07-31T18:37:15.640Z,101387.52
2018-07-31T18:39:44.575Z,101392.58
2018-07-31T18:42:13.479Z,101397.47
2018-07-31T18:44:42.361Z,101396.34
2018-07-31T18:47:17.693Z,101389.56
2018-07-31T18:49:58.444Z,101391.66
2018-07-31T18:52:28.395Z,101394.35
2018-07-31T18:54:57.304Z,101398.18
2018-07-31T18:57:30.599Z,101401.69
2018-07-31T19:00:12.377Z,101401.58
2018-07-31T19:02:43.356Z,101408.00
2018-07-31T19:05:14.279Z,101417.24
2018-07-31T19:07:43.259Z,101418.37
2018-07-31T19:10:15.672Z,101415.53
2018-07-31T19:12:48.979Z,101422.93
2018-07-31T19:15:31.705Z,101421.29
2018-07-31T19:18:05.931Z,101430.44
2018-07-31T19:20:35.368Z,101430.58
2018-07-31T19:23:04.483Z,101433.20
2018-07-31T19:25:38.053Z,101436.59
2018-07-31T19:28:08.511Z,101429.41
2018-07-31T19:30:42.398Z,101443.37
2018-07-31T19:33:16.856Z,101444.84
2018-07-31T19:35:46.865Z,101453.23
2018-07-31T19:38:17.828Z,101458.01
2018-07-31T19:40:54.530Z,101461.92
2018-07-31T19:43:27.009Z,101467.56
2018-07-31T19:46:06.702Z,101471.17
2018-07-31T19:48:35.613Z,101475.27
2018-07-31T19:51:09.776Z,101479.20
2018-07-31T19:53:38.740Z,101483.83
2018-07-31T19:56:07.621Z,101484.14
2018-07-31T19:58:42.318Z,101493.12
2018-07-31T20:01:17.364Z,101492.79
2018-07-31T20:03:46.394Z,101493.91
2018-07-31T20:06:15.386Z,101494.27
2018-07-31T20:08:44.335Z,101500.64
2018-07-31T20:11:14.312Z,101498.83
2018-07-31T20:13:43.336Z,101506.02
2018-07-31T20:19:18.046Z,101503.56
2018-07-31T20:21:47.207Z,101511.84
2018-07-31T20:24:16.156Z,101513.05
2018-07-31T20:26:48.324Z,101510.15
2018-07-31T20:29:22.834Z,101506.66
2018-07-31T20:31:53.002Z,101505.75
2018-07-31T20:34:32.737Z,101516.69
2018-07-31T20:37:05.302Z,101518.16
2018-07-31T20:39:35.186Z,101524.36
2018-07-31T20:42:06.149Z,101524.08
2018-07-31T20:44:44.532Z,101520.78
2018-07-31T20:47:13.413Z,101513.24
2018-07-31T20:49:44.265Z,101523.81
2018-07-31T20:52:13.603Z,101524.03
2018-07-31T20:54:42.573Z,101528.45
2018-07-31T20:57:11.968Z,101531.25
2018-07-31T20:59:41.615Z,101533.50
2018-07-31T21:02:13.017Z,101533.86
2018-07-31T21:04:45.447Z,101538.12
2018-07-31T21:07:34.263Z,101544.97
2018-07-31T21:10:03.419Z,101549.14
2018-07-31T21:12:45.846Z,101557.41
2018-07-31T21:15:19.958Z,101557.48
2018-07-31T21:17:49.393Z,101557.77
2018-07-31T21:20:25.966Z,101560.98
2018-07-31T21:23:04.975Z,101554.63
2018-07-31T21:25:35.938Z,101565.16
2018-07-31T21:28:08.577Z,101565.16
2018-07-31T21:30:37.482Z,101569.87
2018-07-31T21:33:18.914Z,101569.53
2018-07-31T21:35:54.187Z,101566.53
2018-07-31T21:38:23.052Z,101571.00
2018-07-31T21:40:52.907Z,101579.06
2018-07-31T21:43:26.386Z,101575.77
2018-07-31T21:46:07.438Z,101578.03
2018-07-31T21:48:40.463Z,101585.85
2018-07-31T21:54:21.773Z,101589.48
2018-07-31T21:56:57.907Z,101592.47
2018-07-31T22:02:20.509Z,101606.56
2018-07-31T22:04:51.439Z,101599.03
2018-07-31T22:07:20.402Z,101607.86
2018-07-31T22:10:01.673Z,101604.12
2018-07-31T22:12:35.484Z,101608.78
2018-07-31T22:15:19.084Z,101606.24
2018-07-31T22:17:56.459Z,101608.62
2018-07-31T22:20:32.765Z,101607.31
2018-07-31T22:23:07.916Z,101609.59
2018-07-31T22:25:39.199Z,101607.22
2018-07-31T22:31:15.255Z,101607.48
2018-07-31T22:34:02.445Z,101612.31
2018-07-31T22:36:36.813Z,101618.00
2018-07-31T22:39:07.970Z,101619.18
2018-07-31T22:41:36.845Z,101617.42
2018-07-31T22:44:05.776Z,101611.54
2018-07-31T22:46:34.622Z,101617.33
2018-07-31T22:49:03.585Z,101617.58
2018-07-31T22:54:32.435Z,101624.38
2018-07-31T22:57:01.342Z,101627.20
2018-07-31T22:59:30.216Z,101627.80
2018-07-31T23:02:11.167Z,101628.71
2018-07-31T23:04:40.059Z,101635.86
2018-07-31T23:07:08.924Z,101630.45
2018-07-31T23:09:37.872Z,101630.17
2018-07-31T23:12:06.760Z,101629.78
2018-07-31T23:14:39.508Z,101631.35
2018-07-31T23:17:08.389Z,101629.08
2018-07-31T23:19:37.262Z,101624.48
2018-07-31T23:22:06.146Z,101628.98
2018-07-31T23:24:40.610Z,101626.23
2018-07-31T23:27:20.384Z,101621.24
2018-07-31T23:29:49.413Z,101632.83
2018-07-31T23:32:19.425Z,101640.13
2018-07-31T23:34:48.566Z,101638.14
2018-07-31T23:37:17.463Z,101629.91
2018-07-31T23:39:46.361Z,101641.50
2018-07-31T23:42:17.257Z,101634.97
2018-07-31T23:44:46.161Z,101631.31
2018-07-31T23:47:20.892Z,101629.03
2018-07-31T23:49:50.104Z,101623.65
2018-07-31T23:52:19.060Z,101622.56
2018-07-31T23:54:48.088Z,101622.64
2018-07-31T23:57:17.276Z,101623.20
2018-07-31T23:59:46.266Z,101623.63
